Latest Weather Observations for Bundaberg

IDQ60801

Issued at 10:02 am EST Sunday 31 July 2016 (issued every 30 minutes, with the page automatically refreshed every 10 minutes)

About weather observations | Map of weather stations | Latest weather observations for QLD | Other Formats
Station Details ID: 039128 Name: BUNDABERG AERO Lat: -24.91 Lon: 152.32 Height: 30.82 m
Data from the previous 72 hours. | See also: Recent months at Bundaberg
Date/Time
EST
Temp
°C
App
Temp
°C
Dew
Point
°C
Rel
Hum
%
Delta-T
°C
Wind Press
QNH
hPa
Press
MSL
hPa
Rain since
9am
mm
Dir  Spd
km/h
Gust
km/h
Spd
kts
Gust
kts
31/10:00am 20.4 18.4 11.6 57 4.9 S 13 13 7 7 1020.8 1020.8 -
31/09:30am 18.9 17.6 12.6 67 3.5 SSW 11 17 6 9 1020.8 1020.8 0.0
31/09:00am 17.2 16.0 12.9 76 2.4 SSW 11 17 6 9 1020.7 1020.7 0.0
31/08:30am 16.0 14.7 12.6 80 1.9 SW 11 15 6 8 1020.5 1020.5 0.0
31/08:00am 14.2 13.1 11.9 86 1.2 SW 9 11 5 6 1020.1 1020.1 0.0
31/07:30am 12.2 11.1 10.8 91 0.7 SW 7 11 4 6 1019.8 1019.8 0.0
31/07:00am 10.8 9.4 9.7 93 0.6 SSW 7 11 4 6 1019.7 1019.7 0.0
31/06:30am 9.7 7.8 8.9 95 0.4 SW 9 11 5 6 1019.3 1019.3 0.0
31/06:00am 9.5 7.9 8.9 96 0.3 SW 7 11 4 6 1019.1 1019.1 0.0
31/05:30am 9.0 7.4 7.9 93 0.5 SE 6 11 3 6 1018.5 1018.5 0.0
31/05:00am 8.9 8.3 7.2 89 0.8 CALM 0 6 0 3 1018.3 1018.3 0.0
31/04:30am 9.6 8.8 8.0 90 0.8 SW 2 6 1 3 1018.2 1018.2 0.0
31/04:00am 10.1 8.6 8.4 89 0.8 SSW 6 7 3 4 1018.4 1018.4 0.0
31/03:30am 10.9 9.0 9.2 89 0.8 SSW 9 9 5 5 1018.6 1018.6 0.0
31/03:00am 11.0 9.7 9.1 88 0.9 SSW 6 9 3 5 1018.9 1018.9 0.0
31/02:30am 11.7 10.2 10.4 92 0.7 SSW 9 13 5 7 1019.1 1019.1 0.0
31/02:00am 11.3 9.6 9.7 90 0.8 SSW 9 11 5 6 1019.4 1019.4 0.0
31/01:30am 11.4 9.7 9.7 89 0.9 SSW 9 11 5 6 1019.7 1019.7 0.0
31/01:00am 11.4 10.3 10.5 94 0.5 SSW 7 11 4 6 1019.8 1019.8 0.0
31/12:30am 10.7 9.8 9.3 91 0.7 SSW 4 6 2 3 1020.0 1020.0 0.0
31/12:00am 10.8 10.6 9.2 90 0.8 CALM 0 0 0 0 1020.2 1020.2 0.0
 
Date/Time
EST
Temp
°C
App
Temp
°C
Dew
Point
°C
Rel
Hum
%
Delta-T
°C
Wind Press
QNH
hPa
Press
MSL
hPa
Rain since
9am
mm
Dir  Spd
km/h
Gust
km/h
Spd
kts
Gust
kts
30/11:30pm 11.6 10.5 9.9 89 0.9 S 6 7 3 4 1020.3 1020.3 0.0
30/11:00pm 12.7 11.3 10.9 89 0.9 S 9 11 5 6 1020.3 1020.3 0.0
30/10:30pm 12.1 11.1 10.2 88 1.0 SSE 6 7 3 4 1020.4 1020.4 0.0
30/10:00pm 12.4 11.3 10.1 86 1.2 SE 6 7 3 4 1020.4 1020.4 0.0
30/09:30pm 12.7 12.8 10.1 84 1.3 CALM 0 0 0 0 1020.3 1020.3 0.0
30/09:00pm 12.7 12.6 9.5 81 1.6 CALM 0 0 0 0 1020.2 1020.2 0.0
30/08:30pm 13.2 13.2 9.8 80 1.7 CALM 0 0 0 0 1020.1 1020.1 0.0
30/08:00pm 13.4 13.3 9.6 78 1.9 CALM 0 2 0 1 1020.0 1020.0 0.0
30/07:30pm 14.2 14.1 9.6 74 2.4 CALM 0 0 0 0 1019.8 1019.8 0.0
30/07:00pm 14.5 14.3 9.1 70 2.7 CALM 0 0 0 0 1019.3 1019.3 0.0
30/06:30pm 16.2 16.0 9.2 63 3.6 CALM 0 0 0 0 1018.9 1018.9 0.0
30/06:00pm 17.7 16.3 8.8 56 4.6 NNE 6 9 3 5 1018.6 1018.6 0.0
30/05:30pm 19.2 17.3 7.6 47 5.9 NNE 7 9 4 5 1018.5 1018.5 0.0
30/05:00pm 20.0 16.9 7.4 44 6.4 ENE 13 17 7 9 1018.1 1018.1 0.0
30/04:30pm 21.1 17.6 7.3 41 7.1 ENE 15 20 8 11 1017.9 1017.9 0.0
30/04:00pm 21.5 18.3 8.4 43 6.9 E 15 20 8 11 1017.7 1017.7 0.0
30/03:30pm 22.0 18.9 8.9 43 7.0 E 15 20 8 11 1017.6 1017.6 0.0
30/03:00pm 22.6 20.0 9.4 43 7.1 E 13 19 7 10 1017.5 1017.5 0.0
30/02:30pm 23.0 21.2 7.1 36 8.2 S 6 11 3 6 1017.6 1017.6 0.0
30/02:00pm 22.6 20.7 7.6 38 7.8 W 7 13 4 7 1017.8 1017.8 0.0
30/01:30pm 22.9 20.3 7.8 38 7.9 SSW 11 17 6 9 1018.1 1018.1 0.0
30/01:00pm 22.7 20.6 8.4 40 7.6 SW 9 17 5 9 1018.4 1018.4 0.0
30/12:30pm 22.2 20.0 8.0 40 7.4 S 9 15 5 8 1019.0 1019.0 0.0
30/12:00pm 22.2 20.4 9.4 44 6.9 S 9 17 5 9 1019.7 1019.7 0.0
30/11:30am 21.8 19.7 8.3 42 7.1 SSW 9 17 5 9 1020.3 1020.3 0.0
30/11:00am 21.5 19.6 10.6 50 6.0 SSE 11 17 6 9 1020.8 1020.8 0.0
30/10:30am 20.8 18.8 11.4 55 5.2 SSW 13 17 7 9 1021.1 1021.1 0.0
30/10:00am 19.8 17.7 11.3 58 4.7 S 13 17 7 9 1021.3 1021.3 0.0
30/09:30am 18.5 16.1 11.3 63 3.9 S 15 20 8 11 1021.4 1021.4 0.0
30/09:00am 17.3 15.4 13.0 76 2.4 SSW 15 20 8 11 1021.4 1021.4 0.0
30/08:30am 15.2 14.1 11.8 80 1.8 SSW 9 15 5 8 1021.3 1021.3 0.0
30/08:00am 13.8 12.1 11.1 84 1.4 SSW 11 15 6 8 1021.1 1021.1 0.0
30/07:30am 12.8 11.0 10.9 88 1.0 SSW 11 17 6 9 1020.8 1020.8 0.0
30/07:00am 10.8 9.5 10.0 95 0.4 SW 7 11 4 6 1020.5 1020.5 0.0
30/06:30am 9.3 7.3 8.5 95 0.4 SW 9 9 5 5 1020.3 1020.3 0.0
30/06:00am 9.0 8.1 7.6 91 0.7 SSW 2 7 1 4 1020.0 1020.0 0.0
30/05:30am 9.5 8.5 7.3 86 1.0 SSW 2 6 1 3 1019.8 1019.8 0.0
30/05:00am 11.3 9.6 9.7 90 0.8 SSW 9 13 5 7 1019.6 1019.6 0.0
30/04:30am 11.4 9.7 10.0 91 0.7 SSW 9 11 5 6 1019.4 1019.4 0.0
30/04:00am 11.6 9.6 10.3 92 0.7 SSW 11 15 6 8 1019.3 1019.3 0.0
30/03:30am 11.6 10.2 10.8 95 0.4 SSW 9 11 5 6 1019.5 1019.5 0.0
30/03:00am 11.3 10.6 10.2 93 0.6 SW 4 7 2 4 1019.6 1019.6 0.0
30/02:30am 11.2 11.1 9.5 89 0.9 CALM 0 0 0 0 1019.8 1019.8 0.0
30/02:00am 12.2 11.7 10.8 91 0.7 SSW 4 7 2 4 1020.0 1020.0 0.0
30/01:30am 12.8 11.2 11.4 91 0.7 SW 11 13 6 7 1020.3 1020.3 0.0
30/01:00am 12.9 11.4 11.8 93 0.6 SW 11 15 6 8 1020.7 1020.7 0.0
30/12:30am 11.7 10.3 10.9 95 0.4 SW 9 13 5 7 1020.9 1020.9 0.0
30/12:00am 12.2 11.4 11.6 96 0.3 SW 7 11 4 6 1021.0 1021.0 0.0
 
Date/Time
EST
Temp
°C
App
Temp
°C
Dew
Point
°C
Rel
Hum
%
Delta-T
°C
Wind Press
QNH
hPa
Press
MSL
hPa
Rain since
9am
mm
Dir  Spd
km/h
Gust
km/h
Spd
kts
Gust
kts
29/11:30pm 11.8 10.8 10.9 94 0.5 SW 7 9 4 5 1021.0 1021.0 0.0
29/11:00pm 11.2 11.3 10.0 92 0.6 CALM 0 0 0 0 1021.1 1021.1 0.0
29/10:30pm 12.4 12.4 11.1 92 0.7 S 2 6 1 3 1021.1 1021.1 0.0
29/10:00pm 12.3 11.3 10.2 87 1.1 S 6 7 3 4 1021.2 1021.2 0.0
29/09:30pm 12.9 11.9 11.0 88 1.0 S 7 9 4 5 1021.3 1021.3 0.0
29/09:00pm 13.4 12.5 11.5 88 1.0 S 7 9 4 5 1021.1 1021.1 0.0
29/08:30pm 13.9 14.3 11.4 85 1.3 CALM 0 0 0 0 1021.0 1021.0 0.0
29/08:00pm 13.8 14.1 10.8 82 1.6 CALM 0 4 0 2 1020.8 1020.8 0.0
29/07:30pm 15.0 14.6 11.0 77 2.1 E 4 7 2 4 1020.7 1020.7 0.0
29/07:00pm 16.0 15.3 11.4 74 2.5 E 6 9 3 5 1020.4 1020.4 0.0
29/06:30pm 15.7 13.9 10.9 73 2.6 ESE 11 13 6 7 1020.1 1020.1 0.0
29/06:00pm 16.7 15.1 10.3 66 3.4 ESE 9 11 5 6 1019.8 1019.8 0.0
29/05:30pm 17.7 15.9 9.6 59 4.3 E 9 11 5 6 1019.6 1019.6 0.0
29/05:00pm 20.2 17.7 9.7 51 5.6 E 13 17 7 9 1019.5 1019.5 0.0
29/04:30pm 21.6 18.9 8.8 44 6.8 E 13 17 7 9 1019.4 1019.4 0.0
29/04:00pm 22.2 19.0 8.3 41 7.3 ENE 15 19 8 10 1019.4 1019.4 0.0
29/03:30pm 22.6 19.4 8.3 40 7.6 E 15 20 8 11 1019.4 1019.4 0.0
29/03:00pm 22.9 19.5 7.8 38 7.9 E 15 26 8 14 1019.3 1019.3 0.0
29/02:30pm 23.0 19.2 7.5 37 8.1 E 17 24 9 13 1019.3 1019.3 0.0
29/02:00pm 23.3 19.8 7.4 36 8.3 E 15 24 8 13 1019.6 1019.6 0.0
29/01:30pm 23.3 20.2 7.4 36 8.3 E 13 22 7 12 1019.9 1019.9 0.0
29/01:00pm 23.0 19.9 7.1 36 8.2 E 13 20 7 11 1020.4 1020.4 0.0
29/12:30pm 22.5 18.0 6.3 35 8.2 ESE 19 28 10 15 1021.0 1021.0 0.0
29/12:00pm 21.3 18.3 7.9 42 6.9 SE 13 24 7 13 1021.7 1021.7 0.0
29/11:30am 22.0 18.6 9.2 44 6.9 SE 17 24 9 13 1022.1 1022.1 0.0
29/11:00am 21.8 19.1 10.3 48 6.2 SE 15 22 8 12 1022.6 1022.6 0.0
29/10:30am 20.5 17.7 10.0 51 5.7 SSE 15 20 8 11 1022.9 1022.9 0.0
29/10:00am 19.5 16.5 9.4 52 5.3 SSE 15 20 8 11 1023.1 1023.1 0.0
29/09:30am 18.9 16.4 8.0 49 5.6 S 11 17 6 9 1023.3 1023.3 0.0
29/09:00am 17.1 14.2 8.0 55 4.6 SSW 13 19 7 10 1023.4 1023.4 0.0
29/08:30am 15.9 14.2 10.0 68 3.1 SSW 9 13 5 7 1023.3 1023.3 0.0
29/08:00am 14.1 12.3 9.3 73 2.4 SSW 9 15 5 8 1023.1 1023.1 0.0
29/07:30am 13.1 10.7 8.8 75 2.2 SSW 11 15 6 8 1022.8 1022.8 0.0
29/07:00am 12.3 9.5 8.6 78 1.8 SSW 13 15 7 8 1022.5 1022.5 0.0
29/06:30am 11.8 9.7 8.3 79 1.7 SW 9 11 5 6 1022.3 1022.3 0.0
29/06:00am 12.1 10.1 8.8 80 1.6 SW 9 11 5 6 1022.1 1022.1 0.0
29/05:30am 12.1 10.6 9.1 82 1.5 SW 7 11 4 6 1021.8 1021.8 0.0
29/05:00am 12.5 11.0 9.3 81 1.6 SW 7 9 4 5 1021.6 1021.6 0.0
29/04:30am 12.8 11.0 9.4 80 1.7 SSW 9 13 5 7 1021.4 1021.4 0.0
29/04:00am 12.4 10.1 9.1 80 1.7 SSW 11 17 6 9 1021.2 1021.2 0.0
29/03:30am 12.2 9.9 9.0 81 1.6 SSW 11 15 6 8 1021.2 1021.2 0.0
29/03:00am 12.5 10.3 9.3 81 1.6 SSW 11 17 6 9 1021.1 1021.1 0.0
29/02:30am 12.2 10.5 9.8 85 1.2 SSW 9 13 5 7 1021.3 1021.3 0.0
29/02:00am 11.1 9.3 9.4 89 0.8 SW 9 11 5 6 1021.5 1021.5 0.0
29/01:30am 11.9 10.1 9.6 86 1.2 SSW 9 13 5 7 1021.7 1021.7 0.0
29/01:00am 11.5 9.6 9.2 86 1.1 SSW 9 11 5 6 1022.1 1022.1 0.0
29/12:30am 11.8 10.4 9.7 87 1.1 SSW 7 11 4 6 1022.3 1022.3 0.0
29/12:00am 12.3 10.9 9.5 83 1.4 S 7 9 4 5 1022.5 1022.5 0.0
 
Date/Time
EST
Temp
°C
App
Temp
°C
Dew
Point
°C
Rel
Hum
%
Delta-T
°C
Wind Press
QNH
hPa
Press
MSL
hPa
Rain since
9am
mm
Dir  Spd
km/h
Gust
km/h
Spd
kts
Gust
kts
28/11:30pm 13.1 11.1 10.3 83 1.5 S 11 13 6 7 1022.6 1022.6 0.0
28/11:00pm 13.4 11.5 10.4 82 1.6 S 11 15 6 8 1022.7 1022.7 0.0
28/10:30pm 12.9 11.3 10.3 84 1.3 SSW 9 13 5 7 1022.8 1022.8 0.0
28/10:00pm 12.6 11.1 10.5 87 1.1 SSW 9 11 5 6 1023.0 1023.0 0.0
28/09:43pm 12.7 11.2 10.4 86 1.2 SSW 9 11 5 6 1023.1 1023.1 0.0
28/09:30pm 13.5 12.1 11.0 85 1.3 S 9 13 5 7 1023.1 1023.1 0.0
28/09:17pm 13.4 12.0 10.9 85 1.3 S 9 13 5 7 1023.0 1023.0 0.0
28/09:00pm 13.0 11.6 10.9 87 1.1 S 9 17 5 9 1023.2 1023.2 0.0
28/08:30pm 13.4 12.4 10.4 82 1.6 S 6 9 3 5 1023.2 1023.2 0.0
28/08:00pm 14.6 13.8 11.7 83 1.6 SSE 7 9 4 5 1023.0 1023.0 0.0
28/07:30pm 13.7 12.5 10.3 80 1.8 SSE 7 11 4 6 1022.9 1022.9 0.0
28/07:00pm 14.0 13.0 10.2 78 2.0 S 6 9 3 5 1022.6 1022.6 0.0
28/06:30pm 15.5 14.8 10.1 70 2.8 ESE 4 7 2 4 1022.3 1022.3 0.0
28/06:00pm 15.8 14.5 9.9 68 3.1 ESE 7 9 4 5 1022.0 1022.0 0.0
28/05:30pm 17.4 16.0 9.6 60 4.1 ESE 7 9 4 5 1021.8 1021.8 0.0
28/05:00pm 19.0 16.4 9.5 54 5.0 ESE 13 17 7 9 1021.5 1021.5 0.0
28/04:30pm 20.3 17.1 8.3 46 6.3 E 15 19 8 10 1021.1 1021.1 0.0
28/04:00pm 21.0 17.1 7.3 41 7.0 E 17 20 9 11 1020.9 1020.9 0.0
28/03:30pm 21.5 18.3 7.0 39 7.4 E 13 24 7 13 1020.9 1020.9 0.0
28/03:00pm 21.3 18.7 6.0 37 7.7 SSE 9 15 5 8 1020.8 1020.8 0.0
28/02:30pm 21.6 18.3 6.3 37 7.7 SE 13 24 7 13 1020.9 1020.9 0.0
28/02:00pm 21.1 17.5 5.1 35 7.9 S 13 20 7 11 1021.0 1021.0 0.0
28/01:30pm 21.3 17.7 5.2 35 8.0 SSE 13 19 7 10 1021.3 1021.3 0.0
28/01:00pm 21.1 18.5 5.9 37 7.6 S 9 17 5 9 1021.7 1021.7 0.0
28/12:30pm 20.2 16.2 4.7 36 7.5 SSE 15 30 8 16 1022.3 1022.3 0.0
28/12:00pm 20.0 15.6 4.5 36 7.5 SSE 17 24 9 13 1022.8 1022.8 0.0
28/11:30am 19.5 15.3 5.6 40 6.8 SSE 17 28 9 15 1023.2 1023.2 0.0
28/11:00am 19.0 14.4 5.5 41 6.6 S 19 26 10 14 1023.6 1023.6 0.0
28/10:30am 18.6 13.8 4.8 40 6.6 S 19 28 10 15 1023.8 1023.8 0.0

Other Formats:

Comma delimited format used in spreadsheet applications
http://www.bom.gov.au/fwo/IDQ60801/IDQ60801.94387.axf

JavaScript Object Notation format (JSON) in row-major order
http://www.bom.gov.au/fwo/IDQ60801/IDQ60801.94387.json